Tiempo atmosférico en la estación meteorológica de Santa Elena, Jaén (742 m.)



Fecha
DESCASC
Temp. máxima en grados centígrados (hora)
DESCASC
Temp. mínima en grados centígrados (hora)
DESCASC
Temp. media en grados centígrados
DESCASC
Racha de viento máxima en m/sg (hora)
DESCASC
Velocidad máxima media en intervalos de 10 minutos(hora)
DESCASC
Precipitaciones diarias en mm
DESCASC
Precipitaciones de 00:00 a 06:00 en mm
DESCASC
Precipitaciones de 06:00 a 12:00 en mm
DESCASC
Precipitaciones de 12:00 a 18:00 en mm
DESCASC
Precipitaciones de 18:00 a 24:00 en mm
DESCASC
06-12-2018 18.4 (15:10) 10.1 (04:40) 14.3 6.94 (07:40) 4.17 (05:50) 0 0 0 0 0
05-12-2018 20.6 (15:20) 11.4 (08:40) 16 4.72 (23:30) 2.5 (22:20) 0 0 0 0 0
04-12-2018 19.8 (15:00) 11.2 (06:20) 15.5 5 (13:30) 2.5 (13:40) 0 0 0 0 0
03-12-2018 18.5 (15:50) 7.8 (00:00) 13.2 6.39 (17:40) 3.06 (19:40) 0 0 0 0 0
02-12-2018 14.6 (16:30) 5.5 (00:00) 10.1 3.33 (13:40) 1.67 (13:50) 0 0 0 0 0
01-12-2018 11.3 (14:50) 3 (00:00) 7.2 5.28 (01:50) 2.5 (15:20) 0 0 0 0 0
30-11-2018 11.5 (14:50) 4.3 (00:00) 7.9 9.17 (13:00) 4.72 (13:10) 1.8 1 0.8 0 0
29-11-2018 14 (15:20) 6.1 (00:00) 10 9.44 (15:40) 4.72 (15:40) 0 0 0 0 0
28-11-2018 15 (15:20) 5.7 (00:00) 10.3 4.72 (05:50) 2.5 (06:30) 0 0 0 0 0
27-11-2018 12 (16:10) 3.9 (00:00) 8 4.44 (01:00) 2.78 (01:00) 0 0 0 0 0
26-11-2018 10.9 (01:50) 4.8 (08:10) 7.8 13.61 (01:40) 6.11 (01:50) 4 4 0 0 0
25-11-2018 11.6 (16:00) 7.1 (00:00) 9.4 16.11 (20:20) 6.11 (20:50) 17.4 0.8 2.8 2 11.8
24-11-2018 10.7 (15:10) 3.2 (00:00) 6.9 6.39 (14:50) 3.33 (12:50) 0 0 0 0 0
23-11-2018 11.7 (16:10) 4.9 (00:00) 8.3 5.28 (13:40) 2.5 (15:50) 1.4 1.2 0.2 0 0
22-11-2018 11.1 (12:40) 7.9 (00:00) 9.5 5.56 (01:30) 2.22 (01:30) 2 0 0 0.4 1.6
21-11-2018 12 (15:00) 7.8 (00:00) 9.9 9.17 (12:20) 3.89 (00:10) 0.6 0.4 0.2 0 0
20-11-2018 10.2 (13:50) 8 (00:00) 9.1 11.11 (15:40) 5 (21:20) 11.6 0.4 5.4 5.8 0
19-11-2018 10.5 (13:10) 8.1 (00:00) 9.3 6.11 (21:30) 2.78 (21:40) 7 2 1.4 1.4 2.2
18-11-2018 12.9 (11:20) 8.9 (00:00) 10.9 6.39 (15:20) 2.22 (16:00) 12.4 0 0 3.2 9.2
17-11-2018 16.5 (15:30) 9.6 (00:00) 13.1 5 (13:50) 2.22 (11:40) 0 0 0 0 0
16-11-2018 16.9 (15:10) 9.1 (00:00) 13 5.83 (13:50) 2.22 (15:20) 0.2 0.2 0 0 0
15-11-2018 16.9 (14:40) 10 (00:00) 13.4 6.11 (12:40) 2.5 (16:30) 0.2 0 0 0 0.2
14-11-2018 14.9 (15:30) 11 (00:00) 12.9 7.22 (01:30) 2.5 (13:50) 2.8 0 2.4 0.4 0
13-11-2018 14.7 (16:00) 7.6 (00:00) 11.1 7.78 (08:10) 4.44 (13:20) 0 0 0 0 0
12-11-2018 15 (14:20) 9 (00:00) 12 7.22 (13:30) 3.61 (13:30) 0 0 0 0 0
11-11-2018 15.8 (16:40) 10.2 (00:00) 13 5.56 (00:40) 2.5 (02:30) 4.6 1.4 3.2 0 0
10-11-2018 10.6 (16:20) 7.6 (00:00) 9.1 8.61 (12:30) 4.44 (19:20) 0 0 0 0 0

Gráficas

Temp. máximas Temp. mínimas Temp. medias Precipitaciones Rachas de viento máximas Velocidades máximas media en intervalos de 10 minutos

Datos horarios

Fecha y hora oficial Temperatura (ºC) Velocidad del viento (km/h) Dirección del viento Racha (km/h) Dirección de racha Precipitación (mm) Presión (hPa) Tendencia (hPa) Humedad (%)
2018-12-09 23:00:00 13.8 15 Nordeste 33 Norte 0 940.6 0.2 43
2018-12-09 22:00:00 13.3 13 Nordeste 33 Nordeste 0 940.6 0.7 47
2018-12-09 21:00:00 13.5 11 Nordeste 25 Nordeste 0 940.5 1 48
2018-12-09 20:00:00 13.2 9 Norte 26 Norte 0 940.4 1.2 53
2018-12-09 19:00:00 14.2 9 Nordeste 14 Nordeste 0 939.9 0.8 48
2018-12-09 18:00:00 15.6 7 Nordeste 18 Nordeste 0 939.5 0.5 44
2018-12-09 17:00:00 17.6 5 Nordeste 14 Nordeste 0 939.2 -0.3 42
2018-12-09 16:00:00 18.5 7 Nordeste 20 Nordeste 0 939.1 -1 36
2018-12-09 15:00:00 18.4 14 Nordeste 23 Norte 0 939 -1.7 36
2018-12-09 14:00:00 17.7 15 Nordeste 24 Norte 0 939.5 -1.7 36
2018-12-09 13:00:00 16.5 3 Nordeste 10 Nordeste 0 940.1 -0.8 40
2018-12-09 12:00:00 14.4 6 Nordeste 17 Nordeste 0 940.7 0.2 41
2018-12-09 11:00:00 12.4 6 Norte 24 Norte 0 941.2 0.8 46
2018-12-09 10:00:00 10.7 12 Norte 27 Nordeste 0 940.9 0.8 49
2018-12-09 09:00:00 9.8 10 Nordeste 24 Nordeste 0 940.5 0.6 53
2018-12-09 08:00:00 9.7 11 Nordeste 27 Nordeste 0 940.4 0.7 56
2018-12-09 07:00:00 9 11 Norte 23 Nordeste 0 940.1 0.2 60
2018-12-09 06:00:00 9.4 7 Nordeste 24 Nordeste 0 939.9 0.1 56
2018-12-09 05:00:00 9.9 17 Nordeste 29 Nordeste 0 939.7 0 55
2018-12-09 04:00:00 9.4 17 Norte 28 Nordeste 0 939.9 0 59
2018-12-09 03:00:00 9.3 10 Nordeste 20 Nordeste 0 939.8 0 60
2018-12-09 02:00:00 9.4 4 Este 29 Nordeste 0 939.7 -0.4 62
2018-12-09 01:00:00 10.6 16 Nordeste 28 Nordeste 0 939.9 -0.1 55
2018-12-09 00:00:00 10.1 14 Nordeste 37 Nordeste 0 939.8 0 58
2018-12-08 23:00:00 9.3 15 Norte 41 Norte 0 940.1 0.5 63
2018-12-08 22:00:00 10.3 19 Nordeste 34 Nordeste 0 940 0.6 54
2018-12-08 21:00:00 11.1 13 Nordeste 37 Norte 0 939.8 0.5 50
2018-12-08 20:00:00 11.1 18 Norte 28 Norte 0 939.6 0.7 52
2018-12-08 19:00:00 10.6 13 Norte 25 Norte 0 939.4 0.6 60
2018-12-08 18:00:00 11.5 12 Norte 20 Nordeste 0 939.3 0.4 60
2018-12-08 17:00:00 13.1 8 Norte 21 Norte 0 938.9 0 55
2018-12-08 16:00:00 13.8 13 Norte 22 Nordeste 0 938.8 -0.3 55
2018-12-08 15:00:00 13.3 15 Norte 24 Nordeste 0 938.9 -0.6 61
2018-12-08 14:00:00 13.4 13 Norte 27 Norte 0 938.9 -0.9 60
2018-12-08 13:00:00 12.8 12 Nordeste 23 Nordeste 0 939.1 -0.4 67
2018-12-08 12:00:00 11.4 13 Nordeste 28 Norte 0 939.5 0.6 71
2018-12-08 11:00:00 10 15 Nordeste 26 Norte 0 939.8 1.2 75
2018-12-08 10:00:00 8.2 12 Nordeste 24 Nordeste 0 939.5 1 79
2018-12-08 09:00:00 7.4 12 Nordeste 22 Nordeste 0 938.9 0.7 83
2018-12-08 08:00:00 6.3 5 Nordeste 10 Nordeste 0 938.6 0.4 85
2018-12-08 07:00:00 6.7 2 Nordeste 9 Nordeste 0 938.5 0.2 85
2018-12-08 06:00:00 6.7 2 Nordeste 10 Este 0 938.2 -0.4 86
2018-12-08 05:00:00 6.9 4 Nordeste 9 Este 0 938.2 -0.4 85
2018-12-08 04:00:00 7.2 3 Nordeste 7 Nordeste 0 938.3 -0.5 84
2018-12-08 03:00:00 7.5 4 Norte 8 Sudeste 0 938.6 -0.7 84
2018-12-08 02:00:00 7.8 5 Este 11 Sudeste 0 938.6 -0.5 83
2018-12-08 01:00:00 8.5 8 Sudeste 12 Este 0 938.8 -0.3 82
2018-12-08 00:00:00 9 3 Oeste 6 Sudeste 0 939.3 0.3 80
2018-12-07 23:00:00 9.7 2 Norte 10 Sudeste 0 939.1 0.8 79
2018-12-07 22:00:00 10.3 5 Sudoeste 10 Sur 0 939.1 0.6 77
2018-12-07 21:00:00 11.2 4 Oeste 10 Sur 0 939 0.9 75
2018-12-07 20:00:00 11.8 6 Sur 12 Sudoeste 0 938.3 0.8 73
2018-12-07 19:00:00 12.5 7 Sudoeste 15 Sudoeste 0 938.5 0.8 70
2018-12-07 18:00:00 13.8 8 Sudoeste 15 Sur 0 938.1 0.2 65
2018-12-07 17:00:00 15.9 8 Sur 18 Sur 0 937.5 -0.5 60
2018-12-07 16:00:00 16.6 8 Sur 17 Sur 0 937.7 -1.2 57
2018-12-07 15:00:00 16.4 5 Sur 13 Sur 0 937.9 -0.8 56
2018-12-07 14:00:00 16.1 6 Sur 17 Sur 0 938 -1.1 56
2018-12-07 13:00:00 14.7 5 Oeste 12 Oeste 0 938.9 0.1 57
2018-12-07 12:00:00 13.8 5 Sur 12 Sur 0 938.7 0.3 60
2018-12-07 11:00:00 12.3 3 Sur 8 Sudoeste 0 939.1 1.3 63
2018-12-07 10:00:00 10.1 3 Sur 6 Este 0 938.8 1.3 73
2018-12-07 09:00:00 9.1 3 Norte 5 Noroeste 0 938.4 0.9 63
2018-12-07 08:00:00 9.3 4 Norte 5 Noroeste 0 937.8 0.3 60
2018-12-07 07:00:00 9 4 Norte 9 Nordeste 0 937.5 -0.2 64
2018-12-07 06:00:00 9.7 5 Nordeste 8 Nordeste 0 937.5 -0.2 60
2018-12-07 05:00:00 10.3 5 Norte 11 Nordeste 0 937.5 -0.3 59
2018-12-07 04:00:00 10.9 7 Nordeste 15 Nordeste 0 937.7 -0.5 58
2018-12-07 03:00:00 10.6 8 Nordeste 13 Nordeste 0 937.7 -0.7 58
2018-12-07 02:00:00 11.2 5 Norte 13 Nordeste 0 937.8 -0.6 55
2018-12-07 01:00:00 11.8 8 Nordeste 15 Norte 0 938.2 -0.2 53
2018-12-07 00:00:00 12 6 Nordeste 12 Nordeste 0 938.4 0 53
2018-12-06 23:00:00 11.8 4 Norte 10 Norte 0 938.4 0 52
2018-12-06 22:00:00 12.8 6 Norte 10 Norte 0 938.4 0.5 50
2018-12-06 21:00:00 12.8 6 Norte 8 Norte 0 938.4 0.5 53
2018-12-06 20:00:00 13.4 9 Nordeste 13 Nordeste 0 938.4 0.5 58
2018-12-06 19:00:00 13.9 9 Norte 17 Norte 0 937.9 0.1 56
2018-12-06 18:00:00 14.9 9 Nordeste 18 Nordeste 0 937.9 0.2 54
2018-12-06 17:00:00 16.7 9 Nordeste 19 Norte 0 937.9 -0.3 44
2018-12-06 16:00:00 17.9 13 Nordeste 22 Nordeste 0 937.8 -0.8 42
2018-12-06 15:00:00 18.3 8 Nordeste 18 Norte 0 937.7 -1.4 42
2018-12-06 14:00:00 18.1 9 Nordeste 17 Norte 0 938.2 -1.3 38
2018-12-06 13:00:00 17.2 4 Nordeste 8 Norte 0 938.6 -0.6 41
2018-12-06 12:00:00 15.1 2 Norte 15 Nordeste 0 939.1 0.2 49
2018-12-06 11:00:00 13.4 8 Nordeste 17 Nordeste 0 939.5 0.8 55
2018-12-06 10:00:00 12.2 7 Nordeste 18 Nordeste 0 939.2 1 59
2018-12-06 09:00:00 11.3 10 Nordeste 21 Nordeste 0 938.9 0.7 62
2018-12-06 08:00:00 11 13 Nordeste 25 Nordeste 0 938.7 0.4 65
2018-12-06 07:00:00 11.3 9 Nordeste 18 Nordeste 0 938.2 0.2 65
2018-12-06 06:00:00 11.5 14 Norte 24 Norte 0 938.2 0.2 69
2018-12-06 05:00:00 10.9 12 Nordeste 20 Nordeste 0 938.3 0.3 71
2018-12-06 04:00:00 10.5 7 Nordeste 19 Nordeste 0 938 -0.3 70
2018-12-06 03:00:00 11.9 6 Norte 9 Sur 0 938 -0.5 65
2018-12-06 02:00:00 12.1 3 Sudoeste 10 Sur 0 938 -0.3 65
2018-12-06 01:00:00 13.3 8 Nordeste 13 Nordeste 0 938.3 0.3 61
2018-12-06 00:00:00 13.7 9 Nordeste 17 Nordeste 0 938.5 0.8 60
2018-12-05 23:00:00 14 5 Nordeste 14 Nordeste 0 938.3 0.8 59
2018-12-05 22:00:00 14.4 6 Nordeste 10 Nordeste 0 938 0.8 57
2018-12-05 21:00:00 15 7 Nordeste 15 Nordeste 0 937.7 1 56
2018-12-05 20:00:00 15.3 7 Nordeste 15 Nordeste 0 937.5 1 56
2018-12-05 19:00:00 15.9 5 Nordeste 9 Sur 0 937.2 0.9 57
2018-12-05 18:00:00 17.4 6 Sur 9 Sur 0 936.7 0.3 53
2018-12-05 17:00:00 19.9 4 Sudoeste 10 Sudeste 0 936.5 -0.3 45
2018-12-05 16:00:00 20.6 6 Sudeste 11 Sudeste 0 936.3 -0.9 40
2018-12-05 15:00:00 20.5 5 Sudeste 12 Este 0 936.4 -1.2 40
2018-12-05 14:00:00 19.8 4 Sudeste 10 Sur 0 936.8 -0.8 43
2018-12-05 13:00:00 18.7 2 Sudoeste 6 Norte 0 937.2 -0.1 43
2018-12-05 12:00:00 17.3 4 Norte 6 Norte 0 937.6 0.9 46
2018-12-05 11:00:00 15.2 2 Norte 5 Norte 0 937.6 1.5 55
2018-12-05 10:00:00 13.4 3 Norte 5 Norte 0 937.3 1.5 54
2018-12-05 09:00:00 11.8 3 Norte 6 Nordeste 0 936.7 1.2 57
2018-12-05 08:00:00 11.8 4 Norte 5 Norte 0 936.1 0.7 56
2018-12-05 07:00:00 12.3 5 Norte 7 Norte 0 935.8 0.4 55
2018-12-05 06:00:00 13.4 5 Noroeste 8 Noroeste 0 935.5 0 50
2018-12-05 05:00:00 13.6 4 Noroeste 8 Norte 0 935.4 0.1 49
2018-12-05 04:00:00 13.8 4 Noroeste 6 Noroeste 0 935.4 -0.4 44
2018-12-05 03:00:00 13.9 3 Norte 6 Noroeste 0 935.5 -0.3 38
2018-12-05 02:00:00 12.9 5 Norte 7 Norte 0 935.3 -0.5 46
2018-12-05 01:00:00 13.2 0 Calma 4 Norte 0 935.8 0.1 49
2018-12-05 00:00:00 14.1 3 Noroeste 6 Noroeste 0 935.8 0.4 45
2018-12-04 23:00:00 14.1 4 Noroeste 7 Norte 0 935.8 0.8 47
2018-12-04 22:00:00 13.3 4 Norte 5 Norte 0 935.7 0.9 51
2018-12-04 21:00:00 13.8 3 Norte 7 Nordeste 0 935.4 0.9 53
2018-12-04 20:00:00 14.7 4 Norte 5 Norte 0 935 0.5 51
2018-12-04 19:00:00 15.3 4 Norte 6 Norte 0 934.8 0.3 54
2018-12-04 18:00:00 16.4 4 Sur 9 Sur 0 934.5 0.1 49
2018-12-04 17:00:00 19 4 Sur 12 Sur 0 934.5 -0.3 44
2018-12-04 16:00:00 19.7 6 Sur 15 Sur 0 934.5 -0.8 40
2018-12-04 15:00:00 19.8 6 Sur 15 Sur 0 934.4 -1.5 40
2018-12-04 14:00:00 19.5 6 Sur 18 Sur 0 934.8 -1.1 41
2018-12-04 13:00:00 18.2 2 Noroeste 6 Norte 0 935.3 -0.2 47
2018-12-04 12:00:00 16.1 3 Nordeste 5 Nordeste 0 935.9 1.1 53
2018-12-04 11:00:00 14.5 2 Norte 5 Norte 0 935.9 1.7 60
2018-12-04 10:00:00 13.2 5 Norte 6 Norte 0 935.5 1.6 53
2018-12-04 09:00:00 12.3 3 Norte 5 Noroeste 0 934.8 1.1 51
2018-12-04 08:00:00 12.2 4 Norte 8 Norte 0 934.2 0.4 52
2018-12-04 07:00:00 11.4 5 Norte 6 Norte 0 933.9 -0.3 55
2018-12-04 06:00:00 11.5 5 Norte 5 Norte 0 933.7 -0.8 53
2018-12-04 05:00:00 11.4 3 Norte 9 Nordeste 0 933.8 -0.9 52
2018-12-04 04:00:00 11.9 5 Nordeste 14 Nordeste 0 934.2 -0.7 47
2018-12-04 03:00:00 11.6 6 Nordeste 15 Nordeste 0 934.5 -0.7 46
2018-12-04 02:00:00 12.2 5 Nordeste 7 Norte 0 934.7 -0.5 53
2018-12-04 01:00:00 11.8 6 Nordeste 12 Nordeste 0 934.9 -0.5 50
2018-12-04 00:00:00 11.9 4 Norte 6 Norte 0 935.2 -0.4 60
2018-12-03 23:00:00 11.9 4 Norte 13 Nordeste 0 935.2 -0.2 50
2018-12-03 22:00:00 12.1 8 Nordeste 15 Nordeste 0 935.4 0.4 55
2018-12-03 21:00:00 12.1 5 Nordeste 17 Nordeste 0 935.6 1.1 63
2018-12-03 20:00:00 12.4 10 Nordeste 21 Nordeste 0 935.4 0.9 66
2018-12-03 19:00:00 13.1 10 Nordeste 20 Nordeste 0 935 0.8 63
2018-12-03 18:00:00 14.6 8 Nordeste 23 Nordeste 0 934.5 0.7 59
2018-12-03 17:00:00 16.7 7 Nordeste 15 Nordeste 0 934.5 0.5 53
2018-12-03 16:00:00 18.3 3 Norte 10 Sur 0 934.2 -0.2 50
2018-12-03 15:00:00 18 4 Sur 12 Sudoeste 0 933.8 -1.5 46
2018-12-03 14:00:00 17.1 3 Sudeste 9 Sur 0 934 -1.4 52
2018-12-03 13:00:00 15.8 4 Sudeste 9 Este 0 934.4 -0.6 58
2018-12-03 12:00:00 13.4 3 Noroeste 8 Norte 0 935.3 0.5 63
2018-12-03 11:00:00 11.7 3 Norte 10 Nordeste 0 935.4 0.7 65
2018-12-03 10:00:00 9.8 6 Nordeste 13 Nordeste 0 935 0.4 67
2018-12-03 09:00:00 8 5 Nordeste 7 Nordeste 0 934.8 0.2 73
2018-12-03 08:00:00 8 3 Norte 5 Norte 0 934.7 0 72
2018-12-03 07:00:00 8.3 3 Norte 5 Noroeste 0 934.6 -0.4 72
2018-12-03 06:00:00 8.2 3 Norte 6 Este 0 934.6 -0.6 75
2018-12-03 05:00:00 8.6 2 Norte 5 Sudeste 0 934.7 -0.4 76
2018-12-03 04:00:00 8.7 2 Norte 5 Norte 0 935 -0.7 76
2018-12-03 03:00:00 8.9 2 Norte 5 Norte 0 935.2 -0.8 75
2018-12-03 02:00:00 9 0 Calma 4 Noroeste 0 935.1 -1.2 75
2018-12-03 01:00:00 9.3 3 Norte 5 Norte 0 935.7 -0.6 74
2018-12-03 00:00:00 9.3 0 Calma 5 Norte 0 936 -0.3 75
2018-12-02 23:00:00 9.6 4 Noroeste 5 Noroeste 0 936.3 0.3 75
2018-12-02 22:00:00 9.7 4 Noroeste 6 Noroeste 0 936.3 0.7 76
2018-12-02 21:00:00 9.6 4 Sudeste 8 Sudeste 0 936.3 1.3 74
2018-12-02 20:00:00 10.3 2 Nordeste 4 Norte 0 936 1.3 74
2018-12-02 19:00:00 11 4 Noroeste 5 Sur 0 935.6 1.1 73
2018-12-02 18:00:00 12.3 4 Sur 9 Sur 0 935 0.3 69
2018-12-02 17:00:00 14.4 5 Sudeste 8 Oeste 0 934.7 -0.2 62
2018-12-02 16:00:00 14.2 3 Sudoeste 10 Sur 0 934.5 -1.1 61
2018-12-02 15:00:00 14.1 5 Sur 10 Sur 0 934.7 -1.5 60
2018-12-02 14:00:00 13.8 6 Sur 12 Sur 0 934.9 -1.6 60
2018-12-02 13:00:00 13.5 2 Norte 7 Norte 0 935.6 -0.5 59
2018-12-02 12:00:00 11.3 4 Norte 9 Norte 0 936.2 0.5 67
2018-12-02 11:00:00 9.3 3 Nordeste 7 Sur 0 936.5 1.1 70
2018-12-02 10:00:00 7.9 3 Sur 8 Sur 0 936.1 0.8 73
2018-12-02 09:00:00 6.1 3 Noroeste 4 Noroeste 0 935.7 0.6 68
2018-12-02 08:00:00 6 0 Calma 7 Nordeste 0 935.4 0.5 76
2018-12-02 07:00:00 6.1 3 Norte 6 Norte 0 935.3 0.1 75
2018-12-02 06:00:00 5.7 3 Norte 5 Norte 0 935.1 -0.1 79
2018-12-02 05:00:00 5.7 3 Norte 6 Norte 0 934.9 -0.2 78
2018-12-02 04:00:00 5.9 3 Norte 4 Norte 0 935.2 -0.3 78
2018-12-02 03:00:00 6 3 Noroeste 4 Norte 0 935.2 -0.3 78
2018-12-02 02:00:00 6.2 3 Nordeste 6 Este 0 935.1 -0.4 79
2018-12-02 01:00:00 6.7 3 Este 8 Este 0 935.5 0.2 78
2018-12-02 00:00:00 7.1 3 Nordeste 9 Sudeste 0 935.5 0.2 77
2018-12-01 23:00:00 7.6 3 Sur 12 Oeste 0 935.5 0.2 75
2018-12-01 22:00:00 7 2 Noroeste 8 Norte 0 935.3 0 77
2018-12-01 21:00:00 7.5 4 Noroeste 7 Noroeste 0 935.3 0.7 74
2018-12-01 20:00:00 7.9 3 Noroeste 7 Noroeste 0 935.3 0.9 72
2018-12-01 19:00:00 8.4 2 Noroeste 11 Sudoeste 0 935.3 1.2 71
2018-12-01 18:00:00 9.4 5 Sudoeste 13 Sur 0 934.6 0.3 69
2018-12-01 17:00:00 10.9 5 Sur 14 Sur 0 934.4 -0.3 63
2018-12-01 16:00:00 11.2 6 Sur 18 Sur 0 934.1 -1.2 62
2018-12-01 15:00:00 11.1 9 Sur 17 Sur 0 934.3 -1 63
2018-12-01 14:00:00 10.7 5 Sur 13 Sur 0 934.7 -1.1 64
2018-12-01 13:00:00 9.4 3 Oeste 12 Sur 0 935.3 0 65
2018-12-01 12:00:00 9 6 Sur 13 Sur 0 935.3 0.5 71
2018-12-01 11:00:00 7.1 0 Calma 6 Nordeste 0 935.8 1.2 71
2018-12-01 10:00:00 5.4 4 Norte 11 Nordeste 0 935.3 1.2 79
2018-12-01 09:00:00 4.3 6 Nordeste 10 Nordeste 0 934.8 0.9 79
2018-12-01 08:00:00 4.1 7 Nordeste 10 Nordeste 0 934.6 0.6 79
2018-12-01 07:00:00 4.1 6 Norte 12 Norte 0 934.1 0.3 78
2018-12-01 06:00:00 3.7 8 Nordeste 13 Nordeste 0 933.9 -0.1 81
2018-12-01 05:00:00 3.9 6 Norte 11 Norte 0 934 0.1 82
2018-12-01 04:00:00 3.2 6 Nordeste 10 Nordeste 0 933.8 -1.1 83
2018-12-01 03:00:00 3.7 5 Norte 13 Norte 0 934 -0.9 81
2018-12-01 02:00:00 4.5 7 Norte 19 Nordeste 0 933.9 -1.1 78
2018-12-01 01:00:00 4.2 6 Norte 15 Nordeste 0 934.9 -0.1 79
2018-12-01 00:00:00 4.3 5 Noroeste 8 Noroeste 0 934.9 0.7 78
2018-11-30 23:00:00 5 5 Norte 10 Nordeste 0 935 1.5 76
2018-11-30 22:00:00 5.2 4 Norte 7 Norte 0 935 1.7 75
2018-11-30 21:00:00 5.7 3 Norte 6 Norte 0 934.2 1.2 74
2018-11-30 20:00:00 6.4 3 Nordeste 9 Nordeste 0 933.5 1 73
2018-11-30 19:00:00 7.4 5 Nordeste 12 Noroeste 0 933.3 1.3 68
2018-11-30 18:00:00 8.7 3 Nordeste 16 Norte 0 933 1.5 66
2018-11-30 17:00:00 10.3 8 Norte 28 Norte 0 932.5 0.9 58
2018-11-30 16:00:00 10.7 13 Norte 28 Norte 0 932 0.3 59
2018-11-30 15:00:00 11.2 12 Norte 28 Norte 0 931.5 -0.9 61
2018-11-30 14:00:00 11 6 Nordeste 28 Norte 0 931.6 -0.6 68
2018-11-30 13:00:00 10.6 15 Norte 33 Norte 0 931.7 0.1 70
2018-11-30 12:00:00 10.1 9 Norte 17 Noroeste 0 932.4 1.3 76
2018-11-30 11:00:00 9 11 Noroeste 19 Noroeste 0 932.2 1.8 86
2018-11-30 10:00:00 9 9 Noroeste 18 Oeste 0 931.6 1.7 89
2018-11-30 09:00:00 9 3 Oeste 7 Sudoeste 0 931.1 1.4 90
2018-11-30 08:00:00 8.8 4 Oeste 11 Sudoeste 0.4 930.4 0.5 90
2018-11-30 07:00:00 8.7 4 Sudoeste 10 Sudoeste 0.4 929.9 -0.4 90
2018-11-30 06:00:00 8.6 6 Sudoeste 15 Sudoeste 0.2 929.7 -0.8 89
2018-11-30 05:00:00 8.6 6 Sudoeste 19 Sudoeste 0.4 929.9 -0.6 89
2018-11-30 04:00:00 8.5 11 Sudoeste 24 Sudoeste 0.4 930.3 -0.8 89
2018-11-30 03:00:00 8.8 10 Sudoeste 32 Sudoeste 0 930.5 -1.1 88
2018-11-30 02:00:00 8.8 8 Sudoeste 22 Sudoeste 0 930.5 -1.5 86
2018-11-30 01:00:00 8.8 9 Sur 23 Sudoeste 0 931.1 -0.8 84
2018-11-30 00:00:00 9.5 9 Sur 24 Sudoeste 0 931.6 0 81
2018-11-29 23:00:00 9.3 11 Sudoeste 34 Oeste 0 932 1 83
2018-11-29 22:00:00 8.7 13 Sudoeste 28 Sudoeste 0 931.9 0.9 82
2018-11-29 21:00:00 8.3 12 Sudoeste 24 Sudoeste 0 931.6 0.8 75
2018-11-29 20:00:00 8 6 Oeste 17 Oeste 0 931 -0.1 76
2018-11-29 19:00:00 8.8 2 Norte 13 Sur 0 931 0 73
2018-11-29 18:00:00 10.4 8 Sudeste 17 Sur 0 930.8 -0.3 66
2018-11-29 17:00:00 12.6 6 Sur 27 Sudoeste 0 931.1 -0.4 59
2018-11-29 16:00:00 13.7 12 Oeste 34 Sudoeste 0 931 -0.8 46
2018-11-29 15:00:00 13.7 10 Sudoeste 26 Sudoeste 0 931.1 -1.6 49
2018-11-29 14:00:00 13 13 Sudoeste 24 Sudoeste 0 931.5 -1.9 44
2018-11-29 13:00:00 12.4 7 Sur 20 Sur 0 931.8 -1.6 42
2018-11-29 12:00:00 11.9 8 Sur 14 Sur 0 932.7 -0.6 40
2018-11-29 11:00:00 9.4 2 Norte 5 Sur 0 933.4 0.4 52
2018-11-29 10:00:00 8.2 4 Sudeste 9 Sudeste 0 933.4 0.7 55
2018-11-29 09:00:00 6.2 5 Sudeste 7 Sur 0 933.3 0.9 55
2018-11-29 08:00:00 6.6 6 Sur 8 Sur 0 933 0.9 39
2018-11-29 07:00:00 7.7 3 Noroeste 6 Noroeste 0 932.7 0.4 27
2018-11-29 06:00:00 7.5 5 Noroeste 7 Noroeste 0 932.4 -0.2 25
2018-11-29 05:00:00 7 4 Norte 6 Norte 0 932.1 -0.8 31
2018-11-29 04:00:00 7.1 3 Norte 6 Norte 0 932.3 -1.2 33
2018-11-29 03:00:00 7.3 3 Noroeste 4 Noroeste 0 932.6 -1.4 40
2018-11-29 02:00:00 7.1 2 Noroeste 5 Norte 0 932.9 -1.3 47
2018-11-29 01:00:00 7.5 3 Noroeste 6 Noroeste 0 933.5 -0.5 53
2018-11-29 00:00:00 8.3 4 Noroeste 5 Noroeste 0 934 0 49
2018-11-28 23:00:00 8.1 3 Noroeste 5 Norte 0 934.2 -0.2 52
2018-11-28 22:00:00 8.8 3 Noroeste 7 Sudeste 0 934 -0.3 49
2018-11-28 21:00:00 9.1 4 Noroeste 7 Norte 0 934 0.1 50
2018-11-28 13:00:00 12.9 4 Norte 9 Norte 0 934.8 -0.9 44
2018-11-28 12:00:00 11.1 3 Norte 6 Norte 0 935.5 0.2 55
2018-11-28 11:00:00 8.9 2 Norte 4 Norte 0 935.8 0.9 55
2018-11-28 10:00:00 7.7 0 Calma 6 Oeste 0 935.7 1.3 58
2018-11-28 09:00:00 6.1 5 Sudoeste 8 Oeste 0 935.3 1 63
2018-11-28 08:00:00 6.4 7 Nordeste 16 Nordeste 0 934.9 0.9 63
2018-11-28 07:00:00 6.3 8 Nordeste 17 Nordeste 0 934.4 0.5 62
2018-11-28 06:00:00 6 8 Nordeste 17 Nordeste 0 934.3 0.2 66
2018-11-28 05:00:00 6.3 8 Nordeste 13 Nordeste 0 934 -0.2 67
2018-11-28 04:00:00 6.1 8 Nordeste 14 Nordeste 0 933.9 -0.6 69
2018-11-28 03:00:00 6.1 7 Nordeste 13 Nordeste 0 934.1 -0.5 71
2018-11-28 02:00:00 6.3 3 Norte 6 Noroeste 0 934.2 -0.7 69
2018-11-28 01:00:00 6.5 3 Noroeste 8 Norte 0 934.5 -0.7 72
2018-11-28 00:00:00 6.8 4 Noroeste 8 Norte 0 934.6 -0.4 72
2018-11-27 23:00:00 7 4 Noroeste 5 Noroeste 0 934.9 0.1 72
2018-11-27 22:00:00 7 3 Norte 5 Noroeste 0 935.2 0.6 76
2018-11-27 21:00:00 7.3 4 Norte 6 Norte 0 935 0.9 76
2018-11-27 20:00:00 7.9 4 Norte 5 Noroeste 0 934.8 0.9 74
2018-11-27 19:00:00 8.4 2 Norte 8 Sudoeste 0 934.6 0.8 75
2018-11-27 18:00:00 10 4 Sur 9 Sur 0 934.1 0.2 72
2018-11-27 17:00:00 11.8 3 Sur 10 Sur 0 933.9 -0.2 63
2018-11-27 16:00:00 11.9 3 Sudeste 10 Sudoeste 0 933.8 -0.8 62
2018-11-27 15:00:00 11.6 3 Oeste 7 Norte 0 933.9 -1.2 59
2018-11-27 14:00:00 10.8 2 Sudeste 8 Norte 0 934.1 -1.2 62
2018-11-27 13:00:00 9.9 2 Nordeste 9 Nordeste 0 934.6 -0.1 66
2018-11-27 12:00:00 8.6 5 Norte 12 Norte 0 935.1 0.6 70
2018-11-27 11:00:00 7.2 3 Norte 6 Norte 0 935.3 1.1 80
2018-11-27 10:00:00 5.5 3 Noroeste 8 Sudeste 0 934.7 0.3 85
2018-11-27 09:00:00 4.5 4 Este 8 Este 0 934.5 0.4 85
2018-11-27 08:00:00 4 4 Norte 7 Noroeste 0 934.2 0.3 86
2018-11-27 07:00:00 4.1 4 Norte 6 Norte 0 934.4 0 85
2018-11-27 06:00:00 4.3 3 Norte 5 Norte 0 934.1 -0.2 85
2018-11-27 05:00:00 4.3 4 Norte 7 Nordeste 0 933.9 0.1 85
2018-11-27 04:00:00 4.8 4 Nordeste 12 Sudeste 0 934.4 0.5 85
2018-11-27 03:00:00 4.9 3 Norte 10 Este 0 934.3 0.5 83
2018-11-27 02:00:00 5.3 3 Nordeste 16 Norte 0 933.8 0.4 80
2018-11-27 01:00:00 6.1 10 Norte 16 Norte 0 933.9 0.9 80
2018-11-27 00:00:00 5.6 2 Sur 10 Oeste 0 933.8 1.4 83
2018-11-26 23:00:00 5.8 5 Oeste 9 Sudoeste 0 933.4 1.5 82
2018-11-26 22:00:00 6.4 4 Sudoeste 20 Oeste 0 933 2 80
2018-11-26 21:00:00 7.6 12 Oeste 24 Noroeste 0 932.4 1.9 75
2018-11-26 20:00:00 7.6 11 Noroeste 18 Noroeste 0 931.9 2.1 75
2018-11-26 19:00:00 8.2 9 Oeste 19 Oeste 0 931 1.6 75
2018-11-26 18:00:00 8.7 8 Oeste 17 Sudoeste 0 930.5 1.6 73
2018-11-26 17:00:00 9.3 7 Oeste 23 Noroeste 0 929.8 1.4 70
2018-11-26 16:00:00 9.5 13 Noroeste 30 Oeste 0 929.4 1 65
2018-11-26 15:00:00 9.9 13 Oeste 30 Noroeste 0 928.9 0.2 64
2018-11-26 14:00:00 9.4 11 Oeste 36 Oeste 0 928.4 -0.1 69
2018-11-26 13:00:00 8.9 15 Oeste 36 Oeste 0 928.4 0.6 70
2018-11-26 12:00:00 8.1 11 Sudoeste 27 Oeste 0 928.7 1.2 77
2018-11-26 11:00:00 7.1 11 Oeste 27 Sudoeste 0 928.5 1.7 84
2018-11-26 10:00:00 6.1 12 Sudoeste 26 Oeste 0 927.8 1.5 87
2018-11-26 09:00:00 5.5 8 Sur 22 Sur 0 927.5 1.5 88
2018-11-26 08:00:00 4.9 6 Sur 24 Sudoeste 0 926.8 1.8 85
2018-11-26 07:00:00 5.3 9 Sudoeste 26 Oeste 0 926.3 2 82
2018-11-26 06:00:00 5.9 14 Sudoeste 27 Sudoeste 0 926 3.1 81
2018-11-26 05:00:00 6.4 10 Sudoeste 30 Sudoeste 0 925 3.1 81
2018-11-26 04:00:00 6.9 14 Noroeste 43 Oeste 0 924.3 2.3 84
2018-11-26 03:00:00 8.8 17 Oeste 48 Oeste 0 922.9 0.6 89
2018-11-26 02:00:00 10.9 22 Sudoeste 49 Sudoeste 0.2 921.9 -1 91
2018-11-26 01:00:00 10.6 14 Sudoeste 35 Sudoeste 3.8 922 -1.1 91
2018-11-26 00:00:00 10.4 12 Sudoeste 30 Sur 3 922.3 -1.2 91
2018-11-25 23:00:00 10.3 14 Sudoeste 49 Sur 6 922.9 -1 91
2018-11-25 22:00:00 10.3 21 Sudoeste 54 Sudoeste 2.4 923.1 -0.7 91
2018-11-25 21:00:00 10.6 22 Sudoeste 58 Sudoeste 0.4 923.5 -0.2 91
2018-11-25 20:00:00 11.1 13 Sudoeste 43 Sudoeste 0 923.9 0.4 91
2018-11-25 19:00:00 11.2 14 Sudoeste 34 Sudoeste 0 923.8 0.1 91
2018-11-25 18:00:00 11.1 15 Sudoeste 38 Sudoeste 0 923.7 -0.6 91
2018-11-25 17:00:00 11.3 18 Sudoeste 46 Sur 1.4 923.5 -1.5 91
2018-11-25 16:00:00 11.6 14 Sudoeste 32 Sudoeste 0.4 923.7 -1.8 91
2018-11-25 15:00:00 11.4 12 Sudoeste 35 Sudoeste 0.2 924.3 -1.5 91
2018-11-25 14:00:00 10.9 16 Sudoeste 35 Sudoeste 0 925 -1 91
2018-11-25 13:00:00 10.4 16 Sudoeste 33 Sudoeste 0 925.5 -0.6 91
2018-11-25 12:00:00 10 12 Sudoeste 37 Sudoeste 0.8 925.8 -0.2 91
2018-11-25 11:00:00 9.5 12 Sudoeste 26 Sur 0.6 926 0.5 91
2018-11-25 10:00:00 8.8 9 Sur 24 Sudoeste 0 926.1 1 91
2018-11-25 09:00:00 8.6 10 Sudoeste 34 Sudoeste 0.4 926 0.7 91
2018-11-25 08:00:00 8.2 11 Sur 37 Sur 0.2 925.5 0.4 91
2018-11-25 07:00:00 8 11 Sur 26 Sudoeste 0.8 925.1 -0.5 90
2018-11-25 06:00:00 7.6 7 Sudoeste 24 Sudoeste 0.4 925.3 -0.8 90
2018-11-25 05:00:00 7.3 9 Sur 18 Sur 0 925.1 -1.5 90
2018-11-25 04:00:00 7.4 4 Sur 15 Sur 0.2 925.6 -1.8 90
2018-11-25 03:00:00 7.4 6 Sur 17 Sur 0 926.1 -1.6 90
2018-11-25 02:00:00 7.3 4 Sudeste 12 Sur 0.2 926.6 -1.4 90
2018-11-25 01:00:00 7.2 4 Sur 14 Sudoeste 0 927.4 -1.1 89
2018-11-25 00:00:00 7.2 2 Sudoeste 9 Sur 0 927.7 -0.8 89
2018-11-24 23:00:00 6.8 4 Sur 9 Sur 0 928 -0.5 89
2018-11-24 22:00:00 6.1 3 Sudeste 6 Sur 0 928.5 0.3 88
2018-11-24 21:00:00 6.3 4 Sudoeste 12 Sudoeste 0 928.5 0.7 87
2018-11-24 20:00:00 6.6 6 Sudoeste 15 Sudoeste 0 928.5 0.7 86
2018-11-24 19:00:00 7.4 5 Sur 18 Sur 0 928.2 0.3 84
2018-11-24 18:00:00 8.1 8 Sur 19 Sur 0 927.8 0 81
2018-11-24 17:00:00 9.1 8 Sur 18 Sur 0 927.8 -0.6 80
2018-11-24 16:00:00 9.8 9 Sur 22 Sudoeste 0 927.9 -1 76
2018-11-24 15:00:00 10.2 10 Sudoeste 23 Sudoeste 0 927.8 -1.6 72
2018-11-24 14:00:00 9.1 9 Sur 21 Sur 0 928.4 -1.4 82
2018-11-24 13:00:00 9 11 Sur 21 Sur 0 928.9 -0.6 85
2018-11-24 12:00:00 8.1 8 Sudeste 15 Sudeste 0 929.4 0.5 87
2018-11-24 11:00:00 7.1 6 Sudeste 12 Este 0 929.8 1.3 89
2018-11-24 10:00:00 5.3 3 Sudeste 6 Sudeste 0 929.5 1.5 90
2018-11-24 09:00:00 3.9 4 Norte 6 Norte 0 928.9 1 89
2018-11-24 08:00:00 3.5 4 Este 10 Este 0 928.5 0.7 88
2018-11-24 07:00:00 3.4 3 Norte 5 Norte 0 928 0 86
2018-11-24 06:00:00 3.7 3 Norte 5 Norte 0 927.9 -0.4 86
2018-11-24 05:00:00 4.1 2 Oeste 6 Sudeste 0 927.8 -0.9 85
2018-11-24 04:00:00 4.4 3 Noroeste 6 Norte 0 928 -1.1 84
2018-11-24 03:00:00 4.3 4 Norte 7 Noroeste 0 928.3 -0.7 84
2018-11-24 02:00:00 4.4 3 Norte 8 Sudeste 0 928.7 -0.2 85
2018-11-24 01:00:00 4.8 3 Sudoeste 9 Sudeste 0 929.1 -0.1 84
2018-11-24 00:00:00 4.9 5 Nordeste 7 Nordeste 0 929 0.5 83
2018-11-23 23:00:00 5.5 4 Norte 6 Norte 0 928.9 1 80
2018-11-23 22:00:00 5.8 2 Sur 6 Sur 0 929.2 1.6 81
2018-11-23 21:00:00 6.4 3 Noroeste 7 Noroeste 0 928.5 1.5 81
2018-11-23 20:00:00 7.1 5 Norte 8 Oeste 0 927.9 1.1 81
2018-11-23 19:00:00 8.2 5 Oeste 8 Oeste 0 927.6 1.2 80
2018-11-23 18:00:00 9 3 Sur 8 Oeste 0 927 0.6 80
2018-11-23 17:00:00 10 6 Sudoeste 13 Sudoeste 0 926.8 0.2 77
2018-11-23 16:00:00 11.6 6 Sur 19 Sur 0 926.4 -0.7 77
2018-11-23 15:00:00 10.4 8 Sudoeste 17 Sur 0 926.4 -1.2 78
2018-11-23 14:00:00 10.5 6 Sudoeste 19 Sudoeste 0 926.6 -0.7 81
2018-11-23 13:00:00 10.1 8 Sudoeste 17 Sudoeste 0 927.1 -0.2 87
2018-11-23 12:00:00 9.7 7 Sudoeste 15 Sudoeste 0 927.6 1.1 89
2018-11-23 11:00:00 9.3 5 Sur 12 Sur 0 927.3 1.4 90
2018-11-23 10:00:00 8.5 4 Sudoeste 9 Sur 0 927.3 2.5 90
2018-11-23 09:00:00 7.9 4 Sudoeste 15 Oeste 0.2 926.5 2.1 90
2018-11-23 08:00:00 8 7 Sudoeste 12 Sudoeste 0 925.9 1.5 90
2018-11-23 07:00:00 8.1 3 Oeste 10 Sur 0 924.8 0.5 90
2018-11-23 06:00:00 8.4 5 Sur 10 Oeste 0.2 924.4 0 90
2018-11-23 05:00:00 8.4 6 Oeste 13 Oeste 0.8 924.4 0 90
2018-11-23 04:00:00 8.4 0 Calma 6 Noroeste 0 924.3 -0.4 90
2018-11-23 03:00:00 8.3 4 Norte 9 Norte 0.2 924.4 -0.3 90
2018-11-23 02:00:00 8.3 4 Noroeste 10 Oeste 0 924.4 -0.8 89
2018-11-23 01:00:00 8.1 2 Noroeste 8 Oeste 0 924.7 -1.2 89
2018-11-23 00:00:00 7.9 3 Norte 8 Norte 0.2 924.7 -1.6 89
2018-11-22 23:00:00 8.1 3 Norte 5 Norte 0 925.2 -1.2 89
2018-11-22 22:00:00 8.3 4 Norte 7 Este 0.8 925.9 -0.6 88
2018-11-22 21:00:00 8.5 4 Este 12 Este 0.4 926.3 -0.1 87
2018-11-22 20:00:00 9 3 Este 10 Este 0 926.4 0.1 87
2018-11-22 19:00:00 9.3 5 Sudeste 10 Sudeste 0.2 926.5 0.2 86
2018-11-22 18:00:00 9.8 2 Nordeste 6 Nordeste 0 926.4 0.1 84
2018-11-22 17:00:00 10.4 2 Este 7 Este 0.2 926.3 -0.5 82
2018-11-22 16:00:00 10.8 3 Sudeste 12 Sudeste 0 926.3 -0.9 75
2018-11-22 15:00:00 10.9 5 Sur 13 Sur 0.2 926.3 -1.7 77
2018-11-22 14:00:00 10.9 4 Sudeste 8 Sudeste 0 926.8 -1.1 79
2018-11-22 13:00:00 10.9 2 Sudeste 13 Sudeste 0 927.2 -0.8 79
2018-11-22 12:00:00 10.3 6 Sudeste 15 Sudeste 0 928 -0.2 85
2018-11-22 11:00:00 9.6 5 Sudeste 14 Sudeste 0 927.9 0.2 89
2018-11-22 10:00:00 8.9 3 Norte 9 Norte 0 928 0.4 90
2018-11-22 09:00:00 8.2 2 Noroeste 5 Norte 0 928.2 0.8 90
2018-11-22 08:00:00 8 2 Norte 7 Este 0 927.7 0.4 90
2018-11-22 07:00:00 8 2 Norte 4 Norte 0 927.6 0.2 90
2018-11-22 06:00:00 8.2 2 Sur 5 Sudoeste 0 927.4 -0.4 90
2018-11-22 05:00:00 8.2 3 Sudoeste 13 Sudoeste 0 927.3 -0.3 90
2018-11-22 04:00:00 8.5 5 Sur 13 Sur 0 927.4 -0.2 90
2018-11-22 03:00:00 8.5 6 Sudoeste 15 Sudoeste 0 927.8 -0.1 90
2018-11-22 02:00:00 8.6 6 Sudoeste 20 Sudoeste 0 927.6 -0.2 89
2018-11-22 01:00:00 8.7 7 Sur 15 Sur 0 927.6 -0.2 89
2018-11-22 00:00:00 8.8 5 Sur 13 Sur 0 927.9 0.5 89
2018-11-21 23:00:00 8.8 5 Sur 13 Sur 0 927.8 1.2 89
2018-11-21 22:00:00 8.7 3 Sur 8 Sur 0 927.8 1.6 88
2018-11-21 21:00:00 8.9 5 Sur 15 Sur 0 927.4 1.9 88
2018-11-21 20:00:00 9 6 Sur 14 Sur 0 926.6 1.4 87
2018-11-21 19:00:00 9.2 6 Sur 19 Sur 0 926.2 1.4 86
2018-11-21 18:00:00 9.8 7 Sur 20 Sudoeste 0 925.5 1 84
2018-11-21 17:00:00 10.4 9 Sur 25 Sur 0 925.2 0.5 82
2018-11-21 16:00:00 11.1 13 Sur 28 Sur 0 924.8 -0.2 80
2018-11-21 15:00:00 12 12 Sur 27 Sur 0 924.5 -0.7 79
2018-11-21 14:00:00 11.5 9 Sur 21 Sur 0 924.7 -0.6 79
2018-11-21 13:00:00 11.2 9 Sudoeste 33 Sur 0 925 0.2 80
2018-11-21 12:00:00 11 10 Sur 25 Sur 0 925.2 1.2 87
2018-11-21 11:00:00 9.3 8 Sudoeste 23 Sudoeste 0 925.3 1.8 89
2018-11-21 10:00:00 8.8 9 Sudoeste 23 Sudoeste 0 924.8 2 90
2018-11-21 09:00:00 8.3 8 Sudoeste 27 Sudoeste 0 924 1.4 90
2018-11-21 08:00:00 8.2 11 Sudoeste 27 Sudoeste 0 923.5 1.2 90
2018-11-21 07:00:00 8.2 11 Sudoeste 30 Sudoeste 0.2 922.8 0.4 90
2018-11-21 06:00:00 8.3 10 Sudoeste 29 Sudoeste 0.2 922.6 0 90
2018-11-21 05:00:00 8.2 11 Sudoeste 31 Sudoeste 0.2 922.3 -0.2 89
2018-11-21 04:00:00 8.2 8 Sudoeste 24 Sudoeste 0 922.4 0.2 89
2018-11-21 03:00:00 7.9 9 Sudoeste 31 Sudoeste 0 922.6 0.6 88
2018-11-21 02:00:00 7.8 13 Sudoeste 31 Sudoeste 0 922.5 1 87
2018-11-21 01:00:00 8.1 12 Sudoeste 30 Sur 0 922.2 1.4 87
2018-11-21 00:00:00 8.4 12 Sudoeste 31 Sudoeste 0 922 2.1 87
2018-11-20 23:00:00 8.4 13 Sudoeste 38 Sudoeste 0 921.5 2.2 86
2018-11-20 22:00:00 8.6 12 Sudoeste 39 Sudoeste 0 920.8 1.9 86
2018-11-20 21:00:00 8.6 15 Sudoeste 36 Sudoeste 0 919.9 1.4 87
2018-11-20 20:00:00 8.8 12 Sudoeste 31 Sudoeste 0 919.3 1.8 86
2018-11-20 19:00:00 8.5 13 Sudoeste 35 Sudoeste 0 918.9 2.1 84
2018-11-20 18:00:00 8.3 7 Sur 26 Sudoeste 0 918.5 2.4 82
2018-11-20 17:00:00 9.1 10 Sudoeste 37 Oeste 0 917.5 2.1 84
2018-11-20 16:00:00 8.9 17 Oeste 40 Oeste 0.2 916.8 1.4 88
2018-11-20 15:00:00 9.9 10 Sudoeste 30 Sudoeste 0.8 916.1 0.1 91
2018-11-20 14:00:00 10.1 10 Sudoeste 25 Sudoeste 1.2 915.4 -0.6 91
2018-11-20 13:00:00 9.6 6 Sur 18 Sur 3.6 915.4 -0.5 91
2018-11-20 12:00:00 9.3 7 Sur 23 Sur 1.8 916 0.4 91
2018-11-20 11:00:00 9.1 8 Sur 19 Sur 0.2 916 0.6 91
2018-11-20 10:00:00 8.7 11 Sur 33 Sur 1.2 915.9 0.6 91
2018-11-20 09:00:00 8.6 13 Sur 29 Sur 1.2 915.6 0 91
2018-11-20 08:00:00 8.6 6 Sur 15 Sur 1 915.4 -0.1 91
2018-11-20 07:00:00 8.3 4 Sur 15 Sudoeste 0 915.3 -0.5 91
2018-11-20 06:00:00 8.1 8 Sudoeste 24 Sudoeste 0 915.6 -0.4 91
2018-11-20 05:00:00 8.4 13 Sudoeste 35 Sudoeste 0 915.5 -0.6 91
2018-11-20 04:00:00 8.9 11 Sudoeste 25 Sudoeste 0.2 915.8 -0.5 91
2018-11-20 03:00:00 8.9 8 Sudoeste 19 Sudoeste 0.2 916 -0.4 91
2018-11-20 02:00:00 8.9 9 Oeste 21 Sudoeste 0 916.1 -0.3 91
2018-11-20 01:00:00 8.9 8 Sudoeste 18 Sudoeste 0 916.3 0 90
2018-11-20 00:00:00 8.9 8 Sudoeste 20 Sudoeste 0 916.4 0.4 90
2018-11-19 23:00:00 9.1 8 Sudoeste 21 Sur 0.4 916.4 0.6 90
2018-11-19 22:00:00 9.1 9 Sudoeste 22 Sudoeste 1.8 916.3 0.9 90
2018-11-19 21:00:00 9.3 8 Sudoeste 18 Sudoeste 0 916 1.1 90
2018-11-19 20:00:00 9.4 8 Sudoeste 15 Sudoeste 0 915.8 1.3 90
2018-11-19 19:00:00 9.7 5 Sudoeste 14 Sudoeste 0 915.4 1.2 89
2018-11-19 18:00:00 10 5 Sudoeste 10 Sudoeste 0 914.9 0.7 89
2018-11-19 17:00:00 10.3 3 Sudeste 5 Sudeste 0.2 914.5 0.1 89
2018-11-19 16:00:00 10.2 3 Sudeste 7 Sudeste 0.8 914.2 -0.5 89
2018-11-19 15:00:00 10.1 3 Sur 10 Este 0 914.2 -0.9 89
2018-11-19 14:00:00 10.1 2 Este 11 Nordeste 0.4 914.4 -0.6 90
2018-11-19 13:00:00 10.4 2 Oeste 8 Sudoeste 0 914.7 0 90
2018-11-19 12:00:00 9.6 3 Norte 6 Noroeste 0.2 915.1 0.9 90
2018-11-19 11:00:00 9.5 3 Oeste 9 Noroeste 0.8 915 1.3 91
2018-11-19 10:00:00 9 4 Noroeste 7 Noroeste 0.2 914.7 1.2 91
2018-11-19 09:00:00 8.4 5 Norte 12 Nordeste 0 914.2 0.9 91
2018-11-19 08:00:00 8.2 6 Nordeste 11 Nordeste 0.2 913.7 0.4 91
2018-11-19 07:00:00 8.3 5 Nordeste 7 Nordeste 0 913.5 -0.1 90
2018-11-19 06:00:00 8.5 5 Norte 10 Nordeste 0.4 913.3 -0.4 91
2018-11-19 05:00:00 8.4 6 Nordeste 10 Nordeste 0.2 913.3 -0.6 90
2018-11-19 04:00:00 8.4 4 Nordeste 9 Nordeste 0 913.6 -0.7 90
2018-11-19 03:00:00 8.5 4 Norte 8 Nordeste 0.2 913.7 -0.5 90
2018-11-19 02:00:00 8.6 3 Norte 8 Nordeste 0.8 913.9 -1 90
2018-11-19 01:00:00 8.7 4 Nordeste 7 Nordeste 0.4 914.3 -0.9 90
2018-11-19 00:00:00 8.9 6 Nordeste 13 Nordeste 0.4 914.2 -0.9 90
2018-11-18 23:00:00 9.2 4 Nordeste 12 Este 0.8 914.9 -0.4 90
2018-11-18 22:00:00 9.5 5 Sudeste 11 Este 2 915.2 0.2 89
2018-11-18 21:00:00 9.5 3 Nordeste 13 Sur 4 915.1 0 89
2018-11-18 20:00:00 9.8 4 Sur 13 Oeste 0.4 915.3 0.3 88
2018-11-18 19:00:00 9.9 4 Nordeste 7 Nordeste 1.6 915 -0.3 87
2018-11-18 18:00:00 10.4 3 Norte 5 Norte 1.6 915.1 -0.5 85
2018-11-18 17:00:00 11 3 Este 14 Sur 0.8 915 -0.5 84
2018-11-18 16:00:00 11.3 8 Sur 23 Sudoeste 0 915.3 -0.6 80
2018-11-18 15:00:00 11.6 3 Sur 11 Sudoeste 0.2 915.6 -0.7 82
2018-11-18 14:00:00 11.6 3 Noroeste 9 Norte 0.4 915.5 -1.4 82
2018-11-18 13:00:00 12.4 2 Nordeste 13 Sudoeste 0.2 915.9 -1.4 73
2018-11-18 12:00:00 12.7 4 Sudoeste 18 Este 0 916.3 -1.2 68
2018-11-18 11:00:00 12.5 6 Este 18 Este 0 916.9 -0.6 66
2018-11-18 10:00:00 11.1 3 Norte 9 Este 0 917.3 -0.1 76
2018-11-18 09:00:00 9.5 3 Norte 6 Norte 0 917.5 -0.4 80
2018-11-18 08:00:00 9.3 3 Nordeste 7 Nordeste 0 917.5 -0.8 81
2018-11-18 07:00:00 9.2 4 Norte 7 Este 0 917.4 -1.8 81
2018-11-18 06:00:00 9.4 3 Este 7 Este 0 917.9 -2 81
2018-11-18 05:00:00 9.4 3 Norte 6 Nordeste 0 918.3 -2.5 80
2018-11-18 04:00:00 9.6 0 Calma 5 Sudeste 0 919.2 -2.2 79
2018-11-18 03:00:00 9.9 2 Norte 6 Este 0 919.9 -1.4 78
2018-11-18 02:00:00 10.1 3 Sudeste 8 Sur 0 920.8 -1.3 78
2018-11-18 01:00:00 10.4 2 Sudeste 6 Este 0 921.4 -1.1 76
2018-11-18 00:00:00 10.5 4 Norte 10 Sudeste 0 921.3 -1.4 77
2018-11-17 23:00:00 11 5 Sudeste 8 Sudeste 0 922.1 -0.8 76
2018-11-17 22:00:00 11.4 3 Norte 9 Este 0 922.5 -0.6 74
2018-11-17 21:00:00 11.7 6 Sudeste 10 Este 0 922.7 -0.6 73
2018-11-17 20:00:00 12.1 3 Norte 11 Sudeste 0 922.9 -0.7 70
2018-11-17 19:00:00 12.7 6 Sudeste 13 Sudeste 0 923.1 -0.8 69
2018-11-17 18:00:00 13.8 4 Sudeste 8 Este 0 923.3 -1.1 63
2018-11-17 17:00:00 15.9 3 Sudeste 12 Sudeste 0 923.6 -1.5 61
2018-11-17 16:00:00 16.2 4 Sudeste 14 Sudeste 0 923.9 -1.8 57
2018-11-17 15:00:00 16.3 5 Sudeste 16 Este 0 924.4 -2.1 55
2018-11-17 14:00:00 15.9 6 Sur 18 Sudeste 0 925.1 -1.9 57
2018-11-17 13:00:00 15.3 6 Sudeste 16 Este 0 925.7 -1.3 61
2018-11-17 12:00:00 14.7 5 Sudeste 17 Este 0 926.5 -0.2 64
2018-11-17 11:00:00 13 5 Este 15 Este 0 927 0.3 71
2018-11-17 10:00:00 12 5 Este 13 Este 0 927 0.4 74
2018-11-17 09:00:00 10.6 5 Nordeste 15 Nordeste 0 926.7 -0.1 77
2018-11-17 08:00:00 9.6 4 Nordeste 9 Nordeste 0 926.7 -0.3 79
2018-11-17 07:00:00 9.9 5 Nordeste 10 Este 0 926.6 -0.6 78
2018-11-17 06:00:00 10.4 2 Nordeste 7 Nordeste 0 926.8 -0.6 77
2018-11-17 05:00:00 10.6 4 Este 12 Este 0 927 -0.5 77
2018-11-17 04:00:00 10.2 5 Norte 10 Este 0 927.2 -0.6 75
2018-11-17 03:00:00 10.7 5 Este 13 Este 0 927.4 -0.5 74
2018-11-17 02:00:00 10.3 3 Norte 8 Nordeste 0 927.5 -0.6 75
2018-11-17 01:00:00 11 5 Este 13 Este 0 927.8 -0.4 72
2018-11-17 00:00:00 11.2 3 Sudeste 15 Este 0 927.9 -0.1 74
2018-11-16 23:00:00 11.4 3 Nordeste 8 Este 0 928.1 0.3 74
2018-11-16 22:00:00 11.8 5 Este 10 Este 0 928.2 0.4 75
2018-11-16 21:00:00 12.3 5 Este 17 Este 0 928 0.3 73
2018-11-16 20:00:00 13 4 Este 11 Este 0 927.8 0.3 71
2018-11-16 19:00:00 13.7 3 Nordeste 13 Este 0 927.8 0.5 66
2018-11-16 18:00:00 14.7 5 Este 15 Este 0 927.7 0.2 64
2018-11-16 17:00:00 16.1 5 Este 18 Este 0 927.5 -0.6 59
2018-11-16 16:00:00 16.7 5 Este 19 Este 0 927.3 -1.5 57
2018-11-16 15:00:00 16.8 5 Sudeste 19 Sudeste 0 927.5 -1.9 59
2018-11-16 14:00:00 16.6 6 Este 21 Este 0 928.1 -1.5 56
2018-11-16 13:00:00 15.5 4 Este 13 Sur 0 928.8 -0.8 63
2018-11-16 12:00:00 13.8 4 Norte 13 Nordeste 0 929.4 -0.1 70
2018-11-16 11:00:00 12.1 6 Norte 9 Norte 0 929.6 0.6 75
2018-11-16 10:00:00 10.3 4 Norte 7 Este 0 929.6 1.1 81
2018-11-16 09:00:00 9.5 2 Nordeste 7 Nordeste 0 929.5 0.9 82
2018-11-16 08:00:00 9.4 3 Norte 10 Este 0 929 0.2 81
2018-11-16 07:00:00 9.7 5 Nordeste 9 Nordeste 0 928.5 -0.5 81
2018-11-16 06:00:00 10.1 5 Nordeste 10 Nordeste 0 928.6 -0.5 83
2018-11-16 05:00:00 10.6 3 Norte 9 Nordeste 0 928.8 -0.5 84
2018-11-16 04:00:00 11 0 Calma 6 Norte 0 929 -0.4 83
2018-11-16 03:00:00 11.2 3 Norte 5 Norte 0 929.1 -0.3 83
2018-11-16 02:00:00 11.3 4 Norte 5 Norte 0 929.3 0 83
2018-11-16 01:00:00 11.7 5 Este 8 Sudeste 0.2 929.4 0.5 81
2018-11-16 00:00:00 12.6 4 Sudeste 7 Sudeste 0.2 929.4 0.9 77
2018-11-15 23:00:00 12.8 2 Norte 4 Este 0 929.3 1.3 71
2018-11-15 22:00:00 13 2 Nordeste 10 Este 0 928.9 1.2 71
2018-11-15 21:00:00 13.3 5 Este 12 Este 0 928.5 1.3 69
2018-11-15 20:00:00 13.5 5 Este 12 Este 0 928 0.9 68
2018-11-15 19:00:00 13.9 5 Este 13 Este 0 927.7 0.9 66
2018-11-15 18:00:00 14.8 3 Norte 7 Sudeste 0 927.2 0.4 63
2018-11-15 17:00:00 15.5 5 Sudeste 19 Este 0 927.1 -0.1 64
2018-11-15 16:00:00 16.6 4 Sudeste 12 Este 0 926.8 -0.9 57
2018-11-15 15:00:00 16.8 6 Sur 15 Este 0 926.8 -1.5 55
2018-11-15 14:00:00 16.5 6 Sudeste 16 Este 0 927.2 -0.7 55
2018-11-15 13:00:00 16 5 Este 22 Este 0 927.7 -0.1 58
2018-11-15 12:00:00 15.1 6 Este 18 Este 0 928.3 0.8 62
2018-11-15 11:00:00 13.1 8 Norte 18 Nordeste 0 927.9 1 70
2018-11-15 10:00:00 12 5 Nordeste 15 Nordeste 0 927.8 1.5 76
2018-11-15 09:00:00 11.1 6 Este 15 Este 0 927.5 1 79
2018-11-15 08:00:00 10.7 5 Este 17 Este 0 926.9 0.2 79
2018-11-15 07:00:00 10.5 6 Norte 14 Nordeste 0 926.3 -0.6 78
2018-11-15 06:00:00 10.6 5 Nordeste 12 Nordeste 0 926.5 -0.6 77
2018-11-15 05:00:00 10.7 8 Nordeste 14 Nordeste 0 926.7 -0.8 76
2018-11-15 04:00:00 10.3 8 Nordeste 12 Nordeste 0 926.9 -1.1 78
2018-11-15 03:00:00 10 5 Norte 11 Este 0 927.1 -1.4 78
2018-11-15 02:00:00 10.1 5 Este 9 Este 0 927.5 -1.1 79
2018-11-15 01:00:00 10.7 5 Este 11 Sudeste 0 928 -0.9 77
2018-11-15 00:00:00 11.4 7 Este 14 Este 0 928.5 -0.2 74
2018-11-14 23:00:00 11.9 6 Este 20 Este 0 928.6 -0.1 71
2018-11-14 22:00:00 12.3 5 Nordeste 21 Este 0 928.9 -0.1 70
2018-11-14 21:00:00 12.6 6 Nordeste 23 Nordeste 0 928.7 -0.3 69
2018-11-14 20:00:00 13.1 7 Nordeste 24 Nordeste 0 928.7 -0.6 68
2018-11-14 19:00:00 13.6 6 Nordeste 21 Nordeste 0 929 -0.6 68
2018-11-14 18:00:00 13.7 5 Nordeste 18 Nordeste 0 929 -0.8 72
2018-11-14 17:00:00 14.1 5 Nordeste 18 Este 0 929.3 -1 73
2018-11-14 16:00:00 14.6 4 Nordeste 17 Este 0 929.6 -1.3 73
2018-11-14 15:00:00 14.5 4 Nordeste 19 Nordeste 0 929.8 -2.1 75
2018-11-14 14:00:00 14.1 9 Norte 15 Nordeste 0 930.3 -2 81
2018-11-14 13:00:00 12.9 7 Nordeste 21 Nordeste 0.4 930.9 -1.7 85
2018-11-14 12:00:00 12.1 5 Nordeste 21 Este 1 931.9 -0.6 85
2018-11-14 11:00:00 12.3 6 Nordeste 16 Nordeste 0.6 932.3 0.1 85
2018-11-14 10:00:00 11.7 5 Nordeste 20 Este 0.4 932.6 0.5 83
2018-11-14 09:00:00 11.5 5 Nordeste 16 Nordeste 0 932.5 0.3 81
2018-11-14 08:00:00 11.1 5 Nordeste 20 Este 0 932.2 -0.1 80
2018-11-14 07:00:00 11.1 5 Este 17 Este 0.4 932.1 -0.6 80
2018-11-14 06:00:00 11.7 4 Nordeste 17 Este 0 932.2 -0.6 72
2018-11-14 05:00:00 11.9 6 Este 19 Este 0 932.3 -0.7 70
2018-11-14 04:00:00 12 4 Este 18 Este 0 932.7 -0.9 71
2018-11-14 03:00:00 11.7 4 Nordeste 19 Este 0 932.8 -0.8 72
2018-11-14 02:00:00 12 8 Este 26 Este 0 933 -0.7 71
2018-11-14 01:00:00 12.2 6 Este 22 Este 0 933.6 -0.1 71
2018-11-14 00:00:00 12.2 5 Nordeste 24 Nordeste 0 933.6 0 70
2018-11-13 23:00:00 12.2 4 Nordeste 15 Este 0 933.7 0.3 72
2018-11-13 22:00:00 11.6 4 Nordeste 11 Este 0 933.7 0.6 76
2018-11-13 21:00:00 11.9 5 Este 12 Nordeste 0 933.6 1.1 77
2018-11-13 20:00:00 12.1 6 Nordeste 17 Nordeste 0 933.4 1.1 80
2018-11-13 19:00:00 12.7 9 Nordeste 22 Nordeste 0 933.1 1.1 79
2018-11-13 18:00:00 13.2 10 Nordeste 20 Nordeste 0 932.5 0.5 78
2018-11-13 17:00:00 14 9 Nordeste 23 Norte 0 932.3 0 73
2018-11-13 16:00:00 14.6 12 Nordeste 19 Norte 0 932 -0.8 70
2018-11-13 15:00:00 13.9 10 Nordeste 21 Norte 0 932 -1.3 72
2018-11-13 14:00:00 12 13 Nordeste 26 Norte 0 932.3 -1 77
2018-11-13 13:00:00 11.1 13 Nordeste 23 Norte 0 932.8 -0.3 79
2018-11-13 12:00:00 9.9 13 Norte 25 Norte 0 933.3 0.7 83
2018-11-13 11:00:00 8.8 14 Nordeste 26 Norte 0 933.3 1.4 86
2018-11-13 10:00:00 7.8 12 Nordeste 26 Norte 0 933.1 1.5 87
2018-11-13 09:00:00 7.6 11 Nordeste 28 Norte 0 932.6 1.2 87
2018-11-13 08:00:00 8.6 13 Nordeste 25 Nordeste 0 931.9 0.6 84
2018-11-13 07:00:00 9.6 15 Nordeste 25 Norte 0 931.6 0.2 81
2018-11-13 06:00:00 9.8 8 Nordeste 19 Nordeste 0 931.4 0.1 79
2018-11-13 05:00:00 9.9 13 Norte 22 Norte 0 931.3 0.3 78
2018-11-13 04:00:00 9.5 9 Nordeste 17 Nordeste 0 931.4 0.4 76
2018-11-13 03:00:00 9.9 8 Nordeste 16 Norte 0 931.3 0.8 74
2018-11-13 02:00:00 10 9 Nordeste 17 Nordeste 0 931 0.6 74
2018-11-13 01:00:00 10.2 6 Norte 18 Nordeste 0 931 1.3 72
2018-11-13 00:00:00 10.2 7 Nordeste 19 Nordeste 0 930.5 1.1 73
2018-11-12 23:00:00 10.2 3 Nordeste 13 Nordeste 0 930.4 1.2 74
2018-11-12 22:00:00 11.1 4 Norte 7 Norte 0 929.7 0.9 70
2018-11-12 21:00:00 11 3 Norte 6 Noroeste 0 929.4 1.1 71
2018-11-12 20:00:00 11.1 3 Norte 6 Norte 0 929.2 1.3 74
2018-11-12 19:00:00 11.8 4 Noroeste 9 Sudoeste 0 928.8 1.2 71
2018-11-12 18:00:00 12.9 4 Sur 12 Sudoeste 0 928.3 0.8 68
2018-11-12 17:00:00 14.5 6 Sur 12 Sur 0 927.9 -0.1 61
2018-11-12 16:00:00 14.6 5 Sur 16 Sudoeste 0 927.6 -0.3 59
2018-11-12 15:00:00 15 9 Sudoeste 24 Sur 0 927.5 -0.5 57
2018-11-12 14:00:00 14.7 11 Sudoeste 26 Sudoeste 0 928 0.3 53
2018-11-12 13:00:00 14.3 10 Sur 24 Sudoeste 0 927.9 0.9 55
2018-11-12 12:00:00 13.5 9 Sudoeste 23 Sudoeste 0 928 1.6 59
2018-11-12 11:00:00 12 5 Sudeste 13 Este 0 927.7 1.7 89
2018-11-12 10:00:00 10.2 3 Nordeste 8 Nordeste 0 927 1.2 91
2018-11-12 09:00:00 9.1 5 Norte 9 Norte 0 926.4 0.5 90
2018-11-12 08:00:00 9 3 Norte 11 Este 0 926 0 90
2018-11-12 07:00:00 9.5 7 Este 11 Este 0 925.8 -0.4 90
2018-11-12 06:00:00 10 5 Este 9 Este 0 925.9 0.1 90
2018-11-12 05:00:00 10.5 5 Sudeste 9 Sudeste 0 926 0.4 89
2018-11-12 04:00:00 10.9 5 Sudeste 10 Sudeste 0 926.2 0.8 89
2018-11-12 03:00:00 11.2 4 Sur 18 Oeste 0 925.8 0.6 88
2018-11-12 02:00:00 11.4 6 Sur 11 Sur 0 925.6 0.6 88
2018-11-12 01:00:00 11.6 5 Sur 12 Sudoeste 0 925.4 0.5 87
2018-11-12 00:00:00 11.3 5 Sudoeste 11 Sudoeste 0 925.2 0.4 86
2018-11-11 23:00:00 11.4 5 Sur 10 Sur 0 925 0.1 85
2018-11-11 22:00:00 11.5 3 Sudoeste 4 Oeste 0 924.9 0 84
2018-11-11 21:00:00 11.7 3 Sudeste 8 Sur 0 924.8 0.1 83
2018-11-11 20:00:00 12.3 5 Sudoeste 8 Sudoeste 0 924.9 0.2 82
2018-11-11 19:00:00 13.3 6 Sudoeste 11 Oeste 0 924.9 -0.2 80
2018-11-11 18:00:00 14.6 5 Oeste 10 Sudoeste 0 924.7 -0.7 78
2018-11-11 17:00:00 15.7 5 Sudoeste 14 Sur 0 924.7 -1.7 76
2018-11-11 16:00:00 15.5 4 Sudoeste 10 Sudoeste 0 925.1 -2.5 77
2018-11-11 15:00:00 15.1 5 Nordeste 11 Norte 0 925.4 -3.1 81
2018-11-11 14:00:00 14.5 3 Sudoeste 11 Sur 0 926.4 -2.7 86
2018-11-11 13:00:00 13.5 5 Sudeste 10 Sur 0 927.6 -1.7 90
2018-11-11 12:00:00 12.7 3 Sudeste 8 Sur 0 928.5 -0.8 90
2018-11-11 11:00:00 12 3 Este 8 Este 0.2 929.1 0 91
2018-11-11 10:00:00 11 4 Sudeste 9 Este 0.2 929.3 0.5 91
2018-11-11 09:00:00 10.6 2 Este 6 Este 0.6 929.3 0.3 91
2018-11-11 08:00:00 10.3 0 Calma 6 Este 1.4 929.1 0.1 91
2018-11-11 07:00:00 10.2 3 Este 10 Sudeste 0.8 928.8 -0.2 91
2018-11-11 06:00:00 10.3 2 Sudeste 9 Sudeste 0.4 929 -0.3 90
2018-11-11 05:00:00 10.3 3 Sudeste 16 Sur 0.6 929 -0.5 90
2018-11-11 04:00:00 10.5 6 Sur 19 Sur 0.4 929 -1 90
2018-11-11 03:00:00 10.6 7 Sur 19 Sur 0 929.3 -0.9 90
2018-11-11 02:00:00 10.4 6 Sur 16 Sur 0 929.5 -1 90
2018-11-11 01:00:00 10.4 6 Sur 20 Sur 0 930 -0.5 89
2018-11-11 00:00:00 10.4 4 Sur 9 Sur 0 930.2 -0.1 89
2018-11-10 23:00:00 10.4 4 Sur 13 Sur 0 930.5 0.3 89
2018-11-10 22:00:00 10.2 4 Sur 15 Sudoeste 0 930.5 0.7 88
2018-11-10 21:00:00 10.1 9 Sudoeste 24 Sudoeste 0 930.3 0.5 88
2018-11-10 20:00:00 10.1 11 Sudoeste 29 Sur 0 930.2 0.7 88
2018-11-10 19:00:00 10 12 Sudoeste 28 Sudoeste 0 929.8 0.2 87
2018-11-10 18:00:00 10 10 Sudoeste 30 Sudoeste 0 929.8 0.1 86
2018-11-10 17:00:00 10.4 14 Sudoeste 28 Sudoeste 0 929.5 -0.5 85
2018-11-10 16:00:00 10.3 7 Sur 24 Sur 0 929.6 -0.7 86
2018-11-10 15:00:00 9.9 11 Sudoeste 28 Sudoeste 0 929.7 -1.5 88
2018-11-10 14:00:00 9.4 8 Sur 24 Sudoeste 0 930 -1.4 89
2018-11-10 13:00:00 9.2 9 Sur 31 Sur 0 930.3 -1 89
2018-11-10 12:00:00 9.1 8 Sur 25 Sudoeste 0 931.2 0.2 89
2018-11-10 11:00:00 8.9 6 Sur 17 Sur 0 931.4 0.8 90
2018-11-10 10:00:00 8 7 Sur 18 Sur 0 931.3 1 90
2018-11-10 09:00:00 8 6 Sur 22 Sudoeste 0 931 0.4 89
2018-11-10 08:00:00 7.8 7 Sur 15 Sur 0 930.6 -0.1 89
2018-11-10 07:00:00 7.8 6 Sur 18 Sur 0 930.3 -1.1 88
2018-11-10 06:00:00 7.6 4 Sudoeste 9 Sudoeste 0 930.6 -1.3 88
2018-11-10 05:00:00 7.7 4 Sudeste 13 Sudoeste 0 930.7 -1.5 88
2018-11-10 04:00:00 7.9 6 Sudoeste 13 Sudoeste 0 931.4 -1.4 88
2018-11-10 03:00:00 7.9 4 Sur 15 Sudoeste 0 931.9 -1.1 88
2018-11-10 02:00:00 8 5 Sur 13 Sur 0 932.2 -1.1 88
2018-11-10 01:00:00 8.1 3 Sur 9 Sur 0 932.8 -0.6 87
2018-11-10 00:00:00 8.1 4 Sur 12 Sudoeste 0 933 -0.1 87